sensor_id;sensor_type;location;lat;lon;timestamp;P1;durP1;ratioP1;P2;durP2;ratioP2
73526;SDS011;61777;48.834;10.470;2022-09-25T00:00:40;5.13;;;2.05;;
73526;SDS011;61777;48.834;10.470;2022-09-25T00:03:07;4.50;;;2.15;;
73526;SDS011;61777;48.834;10.470;2022-09-25T00:05:37;5.25;;;2.08;;
73526;SDS011;61777;48.834;10.470;2022-09-25T00:08:03;5.22;;;2.22;;
73526;SDS011;61777;48.834;10.470;2022-09-25T00:10:33;5.50;;;2.22;;
73526;SDS011;61777;48.834;10.470;2022-09-25T00:12:59;5.05;;;2.00;;
73526;SDS011;61777;48.834;10.470;2022-09-25T00:15:25;5.18;;;2.30;;
73526;SDS011;61777;48.834;10.470;2022-09-25T00:17:52;4.97;;;2.05;;
73526;SDS011;61777;48.834;10.470;2022-09-25T00:20:18;5.00;;;2.30;;
73526;SDS011;61777;48.834;10.470;2022-09-25T00:22:45;5.07;;;2.30;;
73526;SDS011;61777;48.834;10.470;2022-09-25T00:25:11;5.35;;;2.22;;
73526;SDS011;61777;48.834;10.470;2022-09-25T00:27:38;5.65;;;2.20;;
73526;SDS011;61777;48.834;10.470;2022-09-25T00:30:05;4.47;;;1.95;;
73526;SDS011;61777;48.834;10.470;2022-09-25T00:32:31;5.78;;;2.20;;
73526;SDS011;61777;48.834;10.470;2022-09-25T00:34:57;4.78;;;2.00;;
73526;SDS011;61777;48.834;10.470;2022-09-25T00:37:23;5.07;;;2.10;;
73526;SDS011;61777;48.834;10.470;2022-09-25T00:39:52;5.18;;;2.22;;
73526;SDS011;61777;48.834;10.470;2022-09-25T00:42:18;5.15;;;2.10;;
73526;SDS011;61777;48.834;10.470;2022-09-25T00:45:00;4.55;;;2.10;;
73526;SDS011;61777;48.834;10.470;2022-09-25T00:50:02;5.32;;;2.20;;
73526;SDS011;61777;48.834;10.470;2022-09-25T00:52:29;5.32;;;2.20;;
73526;SDS011;61777;48.834;10.470;2022-09-25T00:55:00;4.57;;;1.95;;
73526;SDS011;61777;48.834;10.470;2022-09-25T00:57:27;5.75;;;2.20;;
73526;SDS011;61777;48.834;10.470;2022-09-25T01:00:00;5.57;;;1.75;;
73526;SDS011;61777;48.834;10.470;2022-09-25T01:02:30;5.00;;;1.90;;
73526;SDS011;61777;48.834;10.470;2022-09-25T01:04:59;5.65;;;1.90;;
73526;SDS011;61777;48.834;10.470;2022-09-25T01:07:26;5.63;;;2.30;;
73526;SDS011;61777;48.834;10.470;2022-09-25T01:09:53;4.32;;;1.88;;
73526;SDS011;61777;48.834;10.470;2022-09-25T01:12:23;5.07;;;1.90;;
73526;SDS011;61777;48.834;10.470;2022-09-25T01:14:49;3.65;;;1.63;;
73526;SDS011;61777;48.834;10.470;2022-09-25T01:17:19;4.82;;;1.92;;
73526;SDS011;61777;48.834;10.470;2022-09-25T01:30:09;4.72;;;2.05;;
73526;SDS011;61777;48.834;10.470;2022-09-25T01:40:26;5.35;;;2.13;;
73526;SDS011;61777;48.834;10.470;2022-09-25T01:45:32;5.10;;;1.95;;
73526;SDS011;61777;48.834;10.470;2022-09-25T01:48:01;4.53;;;1.90;;
73526;SDS011;61777;48.834;10.470;2022-09-25T01:50:29;4.85;;;2.10;;
73526;SDS011;61777;48.834;10.470;2022-09-25T01:52:59;4.65;;;1.83;;
73526;SDS011;61777;48.834;10.470;2022-09-25T01:55:29;4.65;;;2.00;;
73526;SDS011;61777;48.834;10.470;2022-09-25T02:00:44;4.80;;;1.90;;
73526;SDS011;61777;48.834;10.470;2022-09-25T02:03:37;4.82;;;2.00;;
73526;SDS011;61777;48.834;10.470;2022-09-25T02:06:03;4.35;;;1.75;;
73526;SDS011;61777;48.834;10.470;2022-09-25T02:08:33;4.03;;;1.67;;
73526;SDS011;61777;48.834;10.470;2022-09-25T02:11:00;4.70;;;1.85;;
73526;SDS011;61777;48.834;10.470;2022-09-25T02:13:30;4.55;;;1.90;;
73526;SDS011;61777;48.834;10.470;2022-09-25T02:15:59;5.00;;;2.10;;
73526;SDS011;61777;48.834;10.470;2022-09-25T02:18:29;4.95;;;2.17;;
73526;SDS011;61777;48.834;10.470;2022-09-25T02:26:10;4.82;;;2.00;;
73526;SDS011;61777;48.834;10.470;2022-09-25T02:28:41;4.90;;;1.95;;
73526;SDS011;61777;48.834;10.470;2022-09-25T02:31:09;4.97;;;2.00;;
73526;SDS011;61777;48.834;10.470;2022-09-25T02:33:35;4.80;;;1.73;;
73526;SDS011;61777;48.834;10.470;2022-09-25T02:36:02;4.35;;;1.75;;
73526;SDS011;61777;48.834;10.470;2022-09-25T02:38:29;4.65;;;2.03;;
73526;SDS011;61777;48.834;10.470;2022-09-25T02:41:00;5.05;;;2.03;;
73526;SDS011;61777;48.834;10.470;2022-09-25T02:46:28;4.95;;;2.03;;
73526;SDS011;61777;48.834;10.470;2022-09-25T02:48:49;4.15;;;1.80;;
73526;SDS011;61777;48.834;10.470;2022-09-25T02:51:28;4.22;;;1.80;;
73526;SDS011;61777;48.834;10.470;2022-09-25T02:56:51;4.28;;;1.90;;
73526;SDS011;61777;48.834;10.470;2022-09-25T02:59:23;4.97;;;2.17;;
73526;SDS011;61777;48.834;10.470;2022-09-25T03:01:52;5.20;;;1.90;;
73526;SDS011;61777;48.834;10.470;2022-09-25T03:04:19;4.65;;;1.90;;
73526;SDS011;61777;48.834;10.470;2022-09-25T03:06:46;5.18;;;2.00;;
73526;SDS011;61777;48.834;10.470;2022-09-25T03:09:13;4.55;;;2.08;;
73526;SDS011;61777;48.834;10.470;2022-09-25T03:11:41;4.50;;;1.73;;
73526;SDS011;61777;48.834;10.470;2022-09-25T03:14:07;5.35;;;2.13;;
73526;SDS011;61777;48.834;10.470;2022-09-25T03:16:48;4.68;;;1.73;;
73526;SDS011;61777;48.834;10.470;2022-09-25T03:19:15;4.28;;;1.73;;
73526;SDS011;61777;48.834;10.470;2022-09-25T03:21:43;4.32;;;1.92;;
73526;SDS011;61777;48.834;10.470;2022-09-25T03:24:09;4.70;;;2.10;;
73526;SDS011;61777;48.834;10.470;2022-09-25T03:26:35;5.75;;;2.20;;
73526;SDS011;61777;48.834;10.470;2022-09-25T03:29:01;4.75;;;2.13;;
73526;SDS011;61777;48.834;10.470;2022-09-25T03:31:28;3.83;;;1.58;;
73526;SDS011;61777;48.834;10.470;2022-09-25T03:33:54;4.15;;;1.65;;
73526;SDS011;61777;48.834;10.470;2022-09-25T03:36:22;5.07;;;2.10;;
73526;SDS011;61777;48.834;10.470;2022-09-25T03:38:49;4.00;;;1.77;;
73526;SDS011;61777;48.834;10.470;2022-09-25T03:41:18;3.72;;;1.60;;
73526;SDS011;61777;48.834;10.470;2022-09-25T03:43:45;4.57;;;1.95;;
73526;SDS011;61777;48.834;10.470;2022-09-25T03:46:13;4.43;;;2.03;;
73526;SDS011;61777;48.834;10.470;2022-09-25T03:48:40;5.13;;;2.15;;
73526;SDS011;61777;48.834;10.470;2022-09-25T03:51:06;5.32;;;1.95;;
73526;SDS011;61777;48.834;10.470;2022-09-25T03:53:33;5.70;;;2.28;;
73526;SDS011;61777;48.834;10.470;2022-09-25T03:56:01;5.55;;;2.10;;
73526;SDS011;61777;48.834;10.470;2022-09-25T03:58:28;4.53;;;2.00;;
73526;SDS011;61777;48.834;10.470;2022-09-25T04:00:54;4.97;;;1.92;;
73526;SDS011;61777;48.834;10.470;2022-09-25T04:03:21;4.57;;;1.80;;
73526;SDS011;61777;48.834;10.470;2022-09-25T04:05:47;5.03;;;2.13;;
73526;SDS011;61777;48.834;10.470;2022-09-25T04:08:13;4.82;;;1.92;;
73526;SDS011;61777;48.834;10.470;2022-09-25T04:10:40;4.10;;;1.67;;
73526;SDS011;61777;48.834;10.470;2022-09-25T04:13:06;3.97;;;1.75;;
73526;SDS011;61777;48.834;10.470;2022-09-25T04:15:37;4.35;;;1.88;;
73526;SDS011;61777;48.834;10.470;2022-09-25T04:18:04;4.70;;;2.00;;
73526;SDS011;61777;48.834;10.470;2022-09-25T04:20:31;4.28;;;1.70;;
73526;SDS011;61777;48.834;10.470;2022-09-25T04:22:57;4.32;;;1.80;;
73526;SDS011;61777;48.834;10.470;2022-09-25T04:25:23;4.65;;;1.98;;
73526;SDS011;61777;48.834;10.470;2022-09-25T04:27:50;5.03;;;2.20;;
73526;SDS011;61777;48.834;10.470;2022-09-25T04:30:18;5.03;;;1.95;;
73526;SDS011;61777;48.834;10.470;2022-09-25T04:32:44;3.97;;;1.83;;
73526;SDS011;61777;48.834;10.470;2022-09-25T04:35:30;4.60;;;2.10;;
73526;SDS011;61777;48.834;10.470;2022-09-25T04:37:56;4.60;;;1.90;;
73526;SDS011;61777;48.834;10.470;2022-09-25T04:40:22;4.60;;;1.90;;
73526;SDS011;61777;48.834;10.470;2022-09-25T04:42:53;5.60;;;1.95;;
73526;SDS011;61777;48.834;10.470;2022-09-25T04:45:19;4.20;;;1.60;;
73526;SDS011;61777;48.834;10.470;2022-09-25T04:47:45;4.28;;;1.65;;
73526;SDS011;61777;48.834;10.470;2022-09-25T04:50:11;4.13;;;1.70;;
73526;SDS011;61777;48.834;10.470;2022-09-25T04:52:37;6.35;;;1.98;;
73526;SDS011;61777;48.834;10.470;2022-09-25T04:55:03;4.88;;;1.80;;
73526;SDS011;61777;48.834;10.470;2022-09-25T04:57:29;4.90;;;1.98;;
73526;SDS011;61777;48.834;10.470;2022-09-25T04:59:58;4.68;;;1.92;;
73526;SDS011;61777;48.834;10.470;2022-09-25T05:02:26;5.85;;;2.10;;
73526;SDS011;61777;48.834;10.470;2022-09-25T05:04:52;5.30;;;2.10;;
73526;SDS011;61777;48.834;10.470;2022-09-25T05:07:18;4.80;;;1.98;;
73526;SDS011;61777;48.834;10.470;2022-09-25T05:09:44;4.50;;;1.80;;
73526;SDS011;61777;48.834;10.470;2022-09-25T05:12:11;4.35;;;1.80;;
73526;SDS011;61777;48.834;10.470;2022-09-25T05:14:39;4.45;;;1.90;;
73526;SDS011;61777;48.834;10.470;2022-09-25T05:17:06;3.97;;;1.73;;
73526;SDS011;61777;48.834;10.470;2022-09-25T05:19:32;4.88;;;1.80;;
73526;SDS011;61777;48.834;10.470;2022-09-25T05:22:00;5.10;;;2.03;;
73526;SDS011;61777;48.834;10.470;2022-09-25T05:24:27;5.45;;;1.73;;
73526;SDS011;61777;48.834;10.470;2022-09-25T05:26:57;4.63;;;1.70;;
73526;SDS011;61777;48.834;10.470;2022-09-25T05:29:23;4.18;;;1.88;;
73526;SDS011;61777;48.834;10.470;2022-09-25T05:31:50;4.57;;;2.03;;
73526;SDS011;61777;48.834;10.470;2022-09-25T05:34:16;4.50;;;2.10;;
73526;SDS011;61777;48.834;10.470;2022-09-25T05:36:42;4.55;;;2.10;;
73526;SDS011;61777;48.834;10.470;2022-09-25T05:39:08;4.40;;;1.92;;
73526;SDS011;61777;48.834;10.470;2022-09-25T05:41:37;4.60;;;1.80;;
73526;SDS011;61777;48.834;10.470;2022-09-25T05:44:04;3.85;;;1.80;;
73526;SDS011;61777;48.834;10.470;2022-09-25T05:46:33;4.43;;;2.00;;
73526;SDS011;61777;48.834;10.470;2022-09-25T05:48:59;4.25;;;1.80;;
73526;SDS011;61777;48.834;10.470;2022-09-25T05:51:26;4.60;;;1.90;;
73526;SDS011;61777;48.834;10.470;2022-09-25T05:53:52;5.18;;;1.92;;
73526;SDS011;61777;48.834;10.470;2022-09-25T05:56:19;4.63;;;1.85;;
73526;SDS011;61777;48.834;10.470;2022-09-25T05:58:45;4.32;;;2.00;;
73526;SDS011;61777;48.834;10.470;2022-09-25T06:01:13;4.30;;;1.80;;
73526;SDS011;61777;48.834;10.470;2022-09-25T06:03:39;4.40;;;1.65;;
73526;SDS011;61777;48.834;10.470;2022-09-25T06:06:05;4.90;;;2.03;;
73526;SDS011;61777;48.834;10.470;2022-09-25T06:08:31;4.40;;;1.80;;
73526;SDS011;61777;48.834;10.470;2022-09-25T06:10:59;3.85;;;1.63;;
73526;SDS011;61777;48.834;10.470;2022-09-25T06:13:26;3.92;;;1.73;;
73526;SDS011;61777;48.834;10.470;2022-09-25T06:15:56;4.28;;;1.90;;
73526;SDS011;61777;48.834;10.470;2022-09-25T06:18:23;4.75;;;1.83;;
73526;SDS011;61777;48.834;10.470;2022-09-25T06:20:50;4.00;;;1.63;;
73526;SDS011;61777;48.834;10.470;2022-09-25T06:23:16;4.80;;;2.10;;
73526;SDS011;61777;48.834;10.470;2022-09-25T06:25:43;4.30;;;1.90;;
73526;SDS011;61777;48.834;10.470;2022-09-25T06:28:10;4.50;;;2.03;;
73526;SDS011;61777;48.834;10.470;2022-09-25T06:30:36;4.45;;;1.95;;
73526;SDS011;61777;48.834;10.470;2022-09-25T06:33:03;4.30;;;1.80;;
73526;SDS011;61777;48.834;10.470;2022-09-25T06:35:39;3.85;;;1.50;;
73526;SDS011;61777;48.834;10.470;2022-09-25T06:38:05;4.22;;;1.75;;
73526;SDS011;61777;48.834;10.470;2022-09-25T06:40:31;4.43;;;1.88;;
73526;SDS011;61777;48.834;10.470;2022-09-25T06:42:59;4.40;;;1.92;;
73526;SDS011;61777;48.834;10.470;2022-09-25T06:45:26;4.35;;;1.92;;
73526;SDS011;61777;48.834;10.470;2022-09-25T06:48:04;4.28;;;1.75;;
73526;SDS011;61777;48.834;10.470;2022-09-25T06:50:41;4.35;;;1.90;;
73526;SDS011;61777;48.834;10.470;2022-09-25T06:53:08;4.30;;;1.90;;
73526;SDS011;61777;48.834;10.470;2022-09-25T06:55:35;4.45;;;1.85;;
73526;SDS011;61777;48.834;10.470;2022-09-25T06:58:02;4.78;;;1.80;;
73526;SDS011;61777;48.834;10.470;2022-09-25T07:00:29;4.10;;;1.77;;
73526;SDS011;61777;48.834;10.470;2022-09-25T07:02:59;4.32;;;1.80;;
73526;SDS011;61777;48.834;10.470;2022-09-25T07:05:44;3.83;;;1.55;;
73526;SDS011;61777;48.834;10.470;2022-09-25T07:08:12;4.68;;;1.83;;
73526;SDS011;61777;48.834;10.470;2022-09-25T07:10:45;4.75;;;1.80;;
73526;SDS011;61777;48.834;10.470;2022-09-25T07:13:11;3.97;;;1.65;;
73526;SDS011;61777;48.834;10.470;2022-09-25T07:15:37;4.05;;;1.70;;
73526;SDS011;61777;48.834;10.470;2022-09-25T07:18:03;4.80;;;2.13;;
73526;SDS011;61777;48.834;10.470;2022-09-25T07:20:29;4.28;;;1.90;;
73526;SDS011;61777;48.834;10.470;2022-09-25T07:22:59;4.00;;;1.80;;
73526;SDS011;61777;48.834;10.470;2022-09-25T07:25:28;4.40;;;1.50;;
73526;SDS011;61777;48.834;10.470;2022-09-25T07:27:56;4.43;;;1.70;;
73526;SDS011;61777;48.834;10.470;2022-09-25T07:30:23;5.32;;;1.60;;
73526;SDS011;61777;48.834;10.470;2022-09-25T07:32:49;4.30;;;1.90;;
73526;SDS011;61777;48.834;10.470;2022-09-25T07:35:15;3.53;;;1.60;;
73526;SDS011;61777;48.834;10.470;2022-09-25T07:37:42;4.43;;;1.90;;
73526;SDS011;61777;48.834;10.470;2022-09-25T07:40:08;4.65;;;1.90;;
73526;SDS011;61777;48.834;10.470;2022-09-25T07:42:38;4.47;;;1.92;;
73526;SDS011;61777;48.834;10.470;2022-09-25T07:45:04;5.57;;;1.90;;
73526;SDS011;61777;48.834;10.470;2022-09-25T07:47:31;4.82;;;2.13;;
73526;SDS011;61777;48.834;10.470;2022-09-25T07:49:57;4.50;;;1.90;;
73526;SDS011;61777;48.834;10.470;2022-09-25T07:52:23;4.88;;;2.15;;
73526;SDS011;61777;48.834;10.470;2022-09-25T07:54:49;5.30;;;1.85;;
73526;SDS011;61777;48.834;10.470;2022-09-25T07:57:15;3.97;;;1.70;;
73526;SDS011;61777;48.834;10.470;2022-09-25T07:59:44;3.95;;;1.80;;
73526;SDS011;61777;48.834;10.470;2022-09-25T08:02:10;4.70;;;1.98;;
73526;SDS011;61777;48.834;10.470;2022-09-25T08:04:36;3.55;;;1.60;;
73526;SDS011;61777;48.834;10.470;2022-09-25T08:07:02;5.15;;;1.80;;
73526;SDS011;61777;48.834;10.470;2022-09-25T08:09:28;5.32;;;1.88;;
73526;SDS011;61777;48.834;10.470;2022-09-25T08:11:54;4.18;;;1.73;;
73526;SDS011;61777;48.834;10.470;2022-09-25T08:14:21;4.43;;;1.90;;
73526;SDS011;61777;48.834;10.470;2022-09-25T08:16:47;6.35;;;2.00;;
73526;SDS011;61777;48.834;10.470;2022-09-25T08:19:13;4.50;;;1.67;;
73526;SDS011;61777;48.834;10.470;2022-09-25T08:21:42;4.05;;;1.80;;
73526;SDS011;61777;48.834;10.470;2022-09-25T08:24:08;4.68;;;1.80;;
73526;SDS011;61777;48.834;10.470;2022-09-25T08:26:34;4.25;;;1.90;;
73526;SDS011;61777;48.834;10.470;2022-09-25T08:29:02;4.38;;;1.90;;
73526;SDS011;61777;48.834;10.470;2022-09-25T08:31:29;9.45;;;2.00;;
73526;SDS011;61777;48.834;10.470;2022-09-25T08:33:55;5.50;;;2.03;;
73526;SDS011;61777;48.834;10.470;2022-09-25T08:36:21;5.20;;;2.00;;
73526;SDS011;61777;48.834;10.470;2022-09-25T08:38:47;4.82;;;2.10;;
73526;SDS011;61777;48.834;10.470;2022-09-25T08:41:17;4.75;;;2.08;;
73526;SDS011;61777;48.834;10.470;2022-09-25T08:43:52;4.57;;;1.80;;
73526;SDS011;61777;48.834;10.470;2022-09-25T08:46:21;4.45;;;1.80;;
73526;SDS011;61777;48.834;10.470;2022-09-25T08:49:07;4.63;;;1.80;;
73526;SDS011;61777;48.834;10.470;2022-09-25T08:51:40;4.40;;;1.80;;
73526;SDS011;61777;48.834;10.470;2022-09-25T08:54:09;4.22;;;1.80;;
73526;SDS011;61777;48.834;10.470;2022-09-25T08:56:36;4.85;;;2.00;;
73526;SDS011;61777;48.834;10.470;2022-09-25T09:01:50;3.70;;;1.75;;
73526;SDS011;61777;48.834;10.470;2022-09-25T09:07:00;4.95;;;2.10;;
73526;SDS011;61777;48.834;10.470;2022-09-25T09:09:29;8.45;;;2.30;;
73526;SDS011;61777;48.834;10.470;2022-09-25T09:12:06;8.70;;;2.05;;
73526;SDS011;61777;48.834;10.470;2022-09-25T09:14:34;7.65;;;2.30;;
73526;SDS011;61777;48.834;10.470;2022-09-25T09:17:11;7.53;;;2.30;;
73526;SDS011;61777;48.834;10.470;2022-09-25T09:19:41;7.05;;;2.50;;
73526;SDS011;61777;48.834;10.470;2022-09-25T09:22:11;5.70;;;2.42;;
73526;SDS011;61777;48.834;10.470;2022-09-25T09:42:43;7.03;;;2.67;;
73526;SDS011;61777;48.834;10.470;2022-09-25T09:45:15;7.63;;;2.90;;
73526;SDS011;61777;48.834;10.470;2022-09-25T09:53:10;8.85;;;2.60;;
73526;SDS011;61777;48.834;10.470;2022-09-25T09:55:43;6.05;;;2.50;;
73526;SDS011;61777;48.834;10.470;2022-09-25T09:58:14;7.63;;;2.65;;
73526;SDS011;61777;48.834;10.470;2022-09-25T10:00:43;7.10;;;2.55;;
73526;SDS011;61777;48.834;10.470;2022-09-25T10:03:11;7.78;;;2.55;;
73526;SDS011;61777;48.834;10.470;2022-09-25T10:05:40;8.60;;;2.58;;
73526;SDS011;61777;48.834;10.470;2022-09-25T10:08:08;8.25;;;2.97;;
73526;SDS011;61777;48.834;10.470;2022-09-25T10:10:35;6.15;;;2.38;;
73526;SDS011;61777;48.834;10.470;2022-09-25T10:13:03;10.20;;;2.88;;
73526;SDS011;61777;48.834;10.470;2022-09-25T10:16:34;8.00;;;2.50;;
73526;SDS011;61777;48.834;10.470;2022-09-25T10:18:37;8.95;;;3.03;;
73526;SDS011;61777;48.834;10.470;2022-09-25T10:23:45;7.75;;;2.42;;
73526;SDS011;61777;48.834;10.470;2022-09-25T10:26:25;7.97;;;2.78;;
73526;SDS011;61777;48.834;10.470;2022-09-25T10:28:52;8.00;;;2.60;;
73526;SDS011;61777;48.834;10.470;2022-09-25T10:31:21;6.28;;;2.03;;
73526;SDS011;61777;48.834;10.470;2022-09-25T10:34:01;7.07;;;2.40;;
73526;SDS011;61777;48.834;10.470;2022-09-25T10:36:34;5.45;;;2.03;;
73526;SDS011;61777;48.834;10.470;2022-09-25T10:39:02;5.28;;;2.08;;
73526;SDS011;61777;48.834;10.470;2022-09-25T10:41:28;7.57;;;2.50;;
73526;SDS011;61777;48.834;10.470;2022-09-25T10:43:57;6.88;;;2.45;;
73526;SDS011;61777;48.834;10.470;2022-09-25T10:46:31;7.85;;;2.53;;
73526;SDS011;61777;48.834;10.470;2022-09-25T10:49:20;5.00;;;2.30;;
73526;SDS011;61777;48.834;10.470;2022-09-25T10:52:07;6.05;;;2.33;;
73526;SDS011;61777;48.834;10.470;2022-09-25T10:54:34;5.45;;;2.28;;
73526;SDS011;61777;48.834;10.470;2022-09-25T10:57:01;5.78;;;2.30;;
73526;SDS011;61777;48.834;10.470;2022-09-25T10:59:39;6.47;;;2.20;;
73526;SDS011;61777;48.834;10.470;2022-09-25T11:02:11;5.95;;;2.38;;
73526;SDS011;61777;48.834;10.470;2022-09-25T11:04:38;5.28;;;2.00;;
73526;SDS011;61777;48.834;10.470;2022-09-25T11:07:11;5.38;;;2.35;;
73526;SDS011;61777;48.834;10.470;2022-09-25T11:09:42;5.38;;;2.47;;
73526;SDS011;61777;48.834;10.470;2022-09-25T11:12:12;5.53;;;2.30;;
73526;SDS011;61777;48.834;10.470;2022-09-25T11:14:41;5.55;;;2.30;;
73526;SDS011;61777;48.834;10.470;2022-09-25T11:17:27;5.63;;;2.10;;
73526;SDS011;61777;48.834;10.470;2022-09-25T11:20:10;6.32;;;2.20;;
73526;SDS011;61777;48.834;10.470;2022-09-25T11:22:36;6.35;;;2.53;;
73526;SDS011;61777;48.834;10.470;2022-09-25T11:27:46;5.30;;;2.20;;
73526;SDS011;61777;48.834;10.470;2022-09-25T11:30:21;5.85;;;2.17;;
73526;SDS011;61777;48.834;10.470;2022-09-25T11:33:09;5.40;;;2.45;;
73526;SDS011;61777;48.834;10.470;2022-09-25T11:38:13;5.63;;;2.53;;
73526;SDS011;61777;48.834;10.470;2022-09-25T11:40:53;6.20;;;2.15;;
73526;SDS011;61777;48.834;10.470;2022-09-25T11:46:09;5.20;;;2.17;;
73526;SDS011;61777;48.834;10.470;2022-09-25T11:48:54;5.43;;;2.10;;
73526;SDS011;61777;48.834;10.470;2022-09-25T11:51:47;5.03;;;1.95;;
73526;SDS011;61777;48.834;10.470;2022-09-25T12:01:39;5.40;;;2.20;;
73526;SDS011;61777;48.834;10.470;2022-09-25T12:28:14;6.53;;;2.78;;
73526;SDS011;61777;48.834;10.470;2022-09-25T12:33:33;5.75;;;2.28;;
73526;SDS011;61777;48.834;10.470;2022-09-25T12:36:05;5.90;;;2.30;;
73526;SDS011;61777;48.834;10.470;2022-09-25T12:45:59;6.88;;;2.40;;
73526;SDS011;61777;48.834;10.470;2022-09-25T12:48:31;6.05;;;2.10;;
73526;SDS011;61777;48.834;10.470;2022-09-25T12:54:13;6.38;;;2.20;;
73526;SDS011;61777;48.834;10.470;2022-09-25T12:56:55;4.45;;;1.80;;
73526;SDS011;61777;48.834;10.470;2022-09-25T12:59:45;5.32;;;2.17;;
73526;SDS011;61777;48.834;10.470;2022-09-25T13:07:08;5.35;;;2.33;;
73526;SDS011;61777;48.834;10.470;2022-09-25T13:09:42;5.15;;;2.22;;
73526;SDS011;61777;48.834;10.470;2022-09-25T13:14:36;6.15;;;2.00;;
73526;SDS011;61777;48.834;10.470;2022-09-25T13:17:08;5.35;;;2.30;;
73526;SDS011;61777;48.834;10.470;2022-09-25T13:19:35;5.97;;;1.92;;
73526;SDS011;61777;48.834;10.470;2022-09-25T13:22:05;5.80;;;2.20;;
73526;SDS011;61777;48.834;10.470;2022-09-25T13:24:41;5.82;;;2.05;;
73526;SDS011;61777;48.834;10.470;2022-09-25T13:27:11;5.18;;;2.42;;
73526;SDS011;61777;48.834;10.470;2022-09-25T13:29:38;5.15;;;1.80;;
73526;SDS011;61777;48.834;10.470;2022-09-25T13:32:05;4.55;;;1.80;;
73526;SDS011;61777;48.834;10.470;2022-09-25T13:34:36;5.75;;;2.17;;
73526;SDS011;61777;48.834;10.470;2022-09-25T13:37:03;4.50;;;2.08;;
73526;SDS011;61777;48.834;10.470;2022-09-25T13:39:31;6.05;;;1.88;;
73526;SDS011;61777;48.834;10.470;2022-09-25T13:50:34;4.97;;;1.83;;
73526;SDS011;61777;48.834;10.470;2022-09-25T14:00:20;4.20;;;1.83;;
73526;SDS011;61777;48.834;10.470;2022-09-25T14:02:47;4.55;;;1.63;;
73526;SDS011;61777;48.834;10.470;2022-09-25T14:05:20;4.88;;;2.00;;
73526;SDS011;61777;48.834;10.470;2022-09-25T14:07:52;4.30;;;1.80;;
73526;SDS011;61777;48.834;10.470;2022-09-25T14:10:27;5.80;;;2.00;;
73526;SDS011;61777;48.834;10.470;2022-09-25T14:13:01;5.22;;;2.20;;
73526;SDS011;61777;48.834;10.470;2022-09-25T14:15:34;4.32;;;1.88;;
73526;SDS011;61777;48.834;10.470;2022-09-25T14:18:03;4.78;;;2.00;;
73526;SDS011;61777;48.834;10.470;2022-09-25T14:20:39;5.90;;;1.90;;
73526;SDS011;61777;48.834;10.470;2022-09-25T14:23:13;4.70;;;1.95;;
73526;SDS011;61777;48.834;10.470;2022-09-25T14:25:40;5.65;;;2.00;;
73526;SDS011;61777;48.834;10.470;2022-09-25T14:28:17;5.30;;;1.83;;
73526;SDS011;61777;48.834;10.470;2022-09-25T14:30:49;4.72;;;1.95;;
73526;SDS011;61777;48.834;10.470;2022-09-25T14:39:17;4.05;;;1.85;;
73526;SDS011;61777;48.834;10.470;2022-09-25T14:46:34;6.28;;;1.73;;
73526;SDS011;61777;48.834;10.470;2022-09-25T14:49:05;5.18;;;1.80;;
73526;SDS011;61777;48.834;10.470;2022-09-25T14:54:06;5.68;;;1.70;;
73526;SDS011;61777;48.834;10.470;2022-09-25T14:56:32;5.57;;;1.80;;
73526;SDS011;61777;48.834;10.470;2022-09-25T14:59:10;5.10;;;2.00;;
73526;SDS011;61777;48.834;10.470;2022-09-25T15:01:44;4.35;;;1.77;;
73526;SDS011;61777;48.834;10.470;2022-09-25T15:04:10;4.88;;;1.90;;
73526;SDS011;61777;48.834;10.470;2022-09-25T15:06:37;5.00;;;1.88;;
73526;SDS011;61777;48.834;10.470;2022-09-25T15:09:49;4.40;;;1.90;;
73526;SDS011;61777;48.834;10.470;2022-09-25T15:11:52;5.47;;;1.75;;
73526;SDS011;61777;48.834;10.470;2022-09-25T15:14:18;4.45;;;1.90;;
73526;SDS011;61777;48.834;10.470;2022-09-25T15:16:45;5.70;;;2.05;;
73526;SDS011;61777;48.834;10.470;2022-09-25T15:19:34;4.50;;;1.90;;
73526;SDS011;61777;48.834;10.470;2022-09-25T15:24:32;5.07;;;2.13;;
73526;SDS011;61777;48.834;10.470;2022-09-25T15:27:00;4.80;;;1.73;;
73526;SDS011;61777;48.834;10.470;2022-09-25T15:29:28;7.55;;;1.90;;
73526;SDS011;61777;48.834;10.470;2022-09-25T15:31:55;8.57;;;2.60;;
73526;SDS011;61777;48.834;10.470;2022-09-25T15:34:32;9.48;;;2.25;;
73526;SDS011;61777;48.834;10.470;2022-09-25T15:39:55;7.72;;;2.00;;
73526;SDS011;61777;48.834;10.470;2022-09-25T15:42:22;7.68;;;1.95;;
73526;SDS011;61777;48.834;10.470;2022-09-25T15:44:48;8.98;;;2.10;;
73526;SDS011;61777;48.834;10.470;2022-09-25T15:48:00;6.40;;;2.30;;
73526;SDS011;61777;48.834;10.470;2022-09-25T15:50:04;5.07;;;1.80;;
73526;SDS011;61777;48.834;10.470;2022-09-25T15:52:30;6.78;;;2.00;;
73526;SDS011;61777;48.834;10.470;2022-09-25T15:54:59;7.43;;;1.98;;
73526;SDS011;61777;48.834;10.470;2022-09-25T15:57:27;7.65;;;2.08;;
73526;SDS011;61777;48.834;10.470;2022-09-25T15:59:53;8.68;;;2.00;;
73526;SDS011;61777;48.834;10.470;2022-09-25T16:02:46;8.40;;;2.22;;
73526;SDS011;61777;48.834;10.470;2022-09-25T16:05:33;5.90;;;1.80;;
73526;SDS011;61777;48.834;10.470;2022-09-25T16:08:13;5.90;;;1.67;;
73526;SDS011;61777;48.834;10.470;2022-09-25T16:10:39;6.22;;;2.00;;
73526;SDS011;61777;48.834;10.470;2022-09-25T16:13:16;7.35;;;1.85;;
73526;SDS011;61777;48.834;10.470;2022-09-25T16:15:52;8.68;;;1.85;;
73526;SDS011;61777;48.834;10.470;2022-09-25T16:20:47;6.40;;;1.88;;
73526;SDS011;61777;48.834;10.470;2022-09-25T16:23:26;5.15;;;1.85;;
73526;SDS011;61777;48.834;10.470;2022-09-25T16:25:54;6.82;;;1.90;;
73526;SDS011;61777;48.834;10.470;2022-09-25T16:28:24;5.65;;;1.92;;
73526;SDS011;61777;48.834;10.470;2022-09-25T16:33:26;6.38;;;1.95;;
73526;SDS011;61777;48.834;10.470;2022-09-25T16:35:55;7.15;;;1.80;;
73526;SDS011;61777;48.834;10.470;2022-09-25T16:38:28;4.80;;;1.60;;
73526;SDS011;61777;48.834;10.470;2022-09-25T16:41:02;4.45;;;1.70;;
73526;SDS011;61777;48.834;10.470;2022-09-25T16:43:29;5.53;;;1.90;;
73526;SDS011;61777;48.834;10.470;2022-09-25T16:45:58;5.32;;;1.42;;
73526;SDS011;61777;48.834;10.470;2022-09-25T16:48:35;6.47;;;1.80;;
73526;SDS011;61777;48.834;10.470;2022-09-25T16:51:02;5.10;;;1.90;;
73526;SDS011;61777;48.834;10.470;2022-09-25T16:53:28;5.38;;;1.90;;
73526;SDS011;61777;48.834;10.470;2022-09-25T16:55:54;4.60;;;1.70;;
73526;SDS011;61777;48.834;10.470;2022-09-25T16:58:21;5.68;;;2.00;;
73526;SDS011;61777;48.834;10.470;2022-09-25T17:00:48;5.22;;;1.80;;
73526;SDS011;61777;48.834;10.470;2022-09-25T17:03:14;7.63;;;2.45;;
73526;SDS011;61777;48.834;10.470;2022-09-25T17:05:41;7.70;;;3.70;;
73526;SDS011;61777;48.834;10.470;2022-09-25T17:08:15;6.65;;;3.75;;
73526;SDS011;61777;48.834;10.470;2022-09-25T17:10:42;7.68;;;3.38;;
73526;SDS011;61777;48.834;10.470;2022-09-25T17:13:12;5.88;;;2.60;;
73526;SDS011;61777;48.834;10.470;2022-09-25T17:15:39;6.53;;;2.58;;
73526;SDS011;61777;48.834;10.470;2022-09-25T17:18:08;5.85;;;2.30;;
73526;SDS011;61777;48.834;10.470;2022-09-25T17:20:36;5.95;;;2.70;;
73526;SDS011;61777;48.834;10.470;2022-09-25T17:23:02;7.32;;;2.40;;
73526;SDS011;61777;48.834;10.470;2022-09-25T17:25:43;5.95;;;2.78;;
73526;SDS011;61777;48.834;10.470;2022-09-25T17:28:11;6.47;;;2.55;;
73526;SDS011;61777;48.834;10.470;2022-09-25T17:30:37;7.05;;;2.65;;
73526;SDS011;61777;48.834;10.470;2022-09-25T17:33:04;5.63;;;2.60;;
73526;SDS011;61777;48.834;10.470;2022-09-25T17:35:32;5.50;;;2.25;;